sensor_id;sensor_type;location;lat;lon;timestamp;P1;durP1;ratioP1;P2;durP2;ratioP2
8219;SDS011;4151;51.110;7.020;2023-04-08T00:00:43;76.97;;;28.00;;
8219;SDS011;4151;51.110;7.020;2023-04-08T00:03:09;67.20;;;24.87;;
8219;SDS011;4151;51.110;7.020;2023-04-08T00:05:34;69.77;;;26.17;;
8219;SDS011;4151;51.110;7.020;2023-04-08T00:08:00;61.53;;;23.97;;
8219;SDS011;4151;51.110;7.020;2023-04-08T00:10:25;63.00;;;23.00;;
8219;SDS011;4151;51.110;7.020;2023-04-08T00:12:51;74.43;;;24.40;;
8219;SDS011;4151;51.110;7.020;2023-04-08T00:15:17;72.43;;;24.30;;
8219;SDS011;4151;51.110;7.020;2023-04-08T00:17:42;61.67;;;23.70;;
8219;SDS011;4151;51.110;7.020;2023-04-08T00:20:09;66.30;;;25.40;;
8219;SDS011;4151;51.110;7.020;2023-04-08T00:22:35;73.03;;;25.30;;
8219;SDS011;4151;51.110;7.020;2023-04-08T00:25:01;70.33;;;25.63;;
8219;SDS011;4151;51.110;7.020;2023-04-08T00:27:26;66.97;;;26.30;;
8219;SDS011;4151;51.110;7.020;2023-04-08T00:29:52;80.80;;;26.33;;
8219;SDS011;4151;51.110;7.020;2023-04-08T00:32:18;69.17;;;26.13;;
8219;SDS011;4151;51.110;7.020;2023-04-08T00:34:43;69.77;;;26.87;;
8219;SDS011;4151;51.110;7.020;2023-04-08T00:37:09;66.17;;;24.13;;
8219;SDS011;4151;51.110;7.020;2023-04-08T00:39:35;67.53;;;23.73;;
8219;SDS011;4151;51.110;7.020;2023-04-08T00:42:01;60.23;;;23.40;;
8219;SDS011;4151;51.110;7.020;2023-04-08T00:44:27;66.90;;;23.37;;
8219;SDS011;4151;51.110;7.020;2023-04-08T00:46:52;60.83;;;23.60;;
8219;SDS011;4151;51.110;7.020;2023-04-08T00:49:18;68.33;;;25.30;;
8219;SDS011;4151;51.110;7.020;2023-04-08T00:51:44;67.53;;;24.40;;
8219;SDS011;4151;51.110;7.020;2023-04-08T00:54:09;74.27;;;25.33;;
8219;SDS011;4151;51.110;7.020;2023-04-08T00:56:35;70.70;;;25.97;;
8219;SDS011;4151;51.110;7.020;2023-04-08T00:59:01;70.67;;;25.03;;
8219;SDS011;4151;51.110;7.020;2023-04-08T01:06:56;52.90;;;22.30;;
8219;SDS011;4151;51.110;7.020;2023-04-08T01:09:38;66.17;;;23.50;;
8219;SDS011;4151;51.110;7.020;2023-04-08T01:12:09;61.13;;;22.23;;
8219;SDS011;4151;51.110;7.020;2023-04-08T01:14:38;60.97;;;20.90;;
8219;SDS011;4151;51.110;7.020;2023-04-08T01:17:08;66.67;;;23.63;;
8219;SDS011;4151;51.110;7.020;2023-04-08T01:19:35;62.40;;;23.40;;
8219;SDS011;4151;51.110;7.020;2023-04-08T01:22:07;60.17;;;21.87;;
8219;SDS011;4151;51.110;7.020;2023-04-08T01:24:38;62.00;;;22.60;;
8219;SDS011;4151;51.110;7.020;2023-04-08T01:27:07;64.00;;;22.97;;
8219;SDS011;4151;51.110;7.020;2023-04-08T01:29:34;54.17;;;21.00;;
8219;SDS011;4151;51.110;7.020;2023-04-08T01:32:01;68.73;;;23.70;;
8219;SDS011;4151;51.110;7.020;2023-04-08T01:34:27;68.57;;;23.20;;
8219;SDS011;4151;51.110;7.020;2023-04-08T01:36:54;88.03;;;25.10;;
8219;SDS011;4151;51.110;7.020;2023-04-08T01:39:20;57.43;;;21.53;;
8219;SDS011;4151;51.110;7.020;2023-04-08T01:41:47;61.50;;;22.40;;
8219;SDS011;4151;51.110;7.020;2023-04-08T01:44:14;67.73;;;23.70;;
8219;SDS011;4151;51.110;7.020;2023-04-08T01:46:41;68.37;;;22.13;;
8219;SDS011;4151;51.110;7.020;2023-04-08T01:49:07;68.17;;;23.47;;
8219;SDS011;4151;51.110;7.020;2023-04-08T01:51:33;80.00;;;24.47;;
8219;SDS011;4151;51.110;7.020;2023-04-08T01:54:01;73.30;;;24.93;;
8219;SDS011;4151;51.110;7.020;2023-04-08T01:56:27;72.10;;;24.90;;
8219;SDS011;4151;51.110;7.020;2023-04-08T01:58:57;76.60;;;27.27;;
8219;SDS011;4151;51.110;7.020;2023-04-08T02:01:24;89.00;;;26.13;;
8219;SDS011;4151;51.110;7.020;2023-04-08T02:03:52;82.83;;;27.80;;
8219;SDS011;4151;51.110;7.020;2023-04-08T02:06:20;82.17;;;25.70;;
8219;SDS011;4151;51.110;7.020;2023-04-08T02:08:45;89.77;;;27.20;;
8219;SDS011;4151;51.110;7.020;2023-04-08T02:11:11;78.70;;;26.40;;
8219;SDS011;4151;51.110;7.020;2023-04-08T02:13:37;84.70;;;24.60;;
8219;SDS011;4151;51.110;7.020;2023-04-08T02:16:03;85.33;;;26.47;;
8219;SDS011;4151;51.110;7.020;2023-04-08T02:18:39;82.57;;;28.17;;
8219;SDS011;4151;51.110;7.020;2023-04-08T02:21:13;76.47;;;25.27;;
8219;SDS011;4151;51.110;7.020;2023-04-08T02:23:40;83.30;;;27.13;;
8219;SDS011;4151;51.110;7.020;2023-04-08T02:26:12;91.00;;;27.73;;
8219;SDS011;4151;51.110;7.020;2023-04-08T02:28:39;100.73;;;29.03;;
8219;SDS011;4151;51.110;7.020;2023-04-08T02:31:08;86.07;;;28.07;;
8219;SDS011;4151;51.110;7.020;2023-04-08T02:33:39;107.00;;;30.40;;
8219;SDS011;4151;51.110;7.020;2023-04-08T02:36:05;90.27;;;28.80;;
8219;SDS011;4151;51.110;7.020;2023-04-08T02:38:32;130.83;;;31.63;;
8219;SDS011;4151;51.110;7.020;2023-04-08T02:40:57;86.63;;;27.50;;
8219;SDS011;4151;51.110;7.020;2023-04-08T02:43:23;121.93;;;31.40;;
8219;SDS011;4151;51.110;7.020;2023-04-08T02:45:56;120.53;;;30.90;;
8219;SDS011;4151;51.110;7.020;2023-04-08T02:48:24;124.33;;;31.63;;
8219;SDS011;4151;51.110;7.020;2023-04-08T02:50:50;138.10;;;32.67;;
8219;SDS011;4151;51.110;7.020;2023-04-08T02:53:15;114.03;;;31.03;;
8219;SDS011;4151;51.110;7.020;2023-04-08T02:55:41;115.20;;;31.47;;
8219;SDS011;4151;51.110;7.020;2023-04-08T02:58:06;118.33;;;29.17;;
8219;SDS011;4151;51.110;7.020;2023-04-08T03:00:32;157.37;;;34.00;;
8219;SDS011;4151;51.110;7.020;2023-04-08T03:02:57;139.97;;;31.87;;
8219;SDS011;4151;51.110;7.020;2023-04-08T03:05:24;122.37;;;32.20;;
8219;SDS011;4151;51.110;7.020;2023-04-08T03:07:50;134.47;;;30.70;;
8219;SDS011;4151;51.110;7.020;2023-04-08T03:10:15;123.60;;;31.77;;
8219;SDS011;4151;51.110;7.020;2023-04-08T03:12:41;112.30;;;29.97;;
8219;SDS011;4151;51.110;7.020;2023-04-08T03:15:07;118.60;;;28.63;;
8219;SDS011;4151;51.110;7.020;2023-04-08T03:17:32;109.57;;;32.40;;
8219;SDS011;4151;51.110;7.020;2023-04-08T03:19:58;104.17;;;28.00;;
8219;SDS011;4151;51.110;7.020;2023-04-08T03:22:24;99.67;;;27.70;;
8219;SDS011;4151;51.110;7.020;2023-04-08T03:24:50;108.90;;;30.20;;
8219;SDS011;4151;51.110;7.020;2023-04-08T03:27:16;100.97;;;30.30;;
8219;SDS011;4151;51.110;7.020;2023-04-08T03:29:41;117.90;;;27.60;;
8219;SDS011;4151;51.110;7.020;2023-04-08T03:32:07;110.03;;;28.20;;
8219;SDS011;4151;51.110;7.020;2023-04-08T03:34:33;113.20;;;27.10;;
8219;SDS011;4151;51.110;7.020;2023-04-08T03:36:59;119.30;;;30.00;;
8219;SDS011;4151;51.110;7.020;2023-04-08T03:39:25;109.17;;;28.00;;
8219;SDS011;4151;51.110;7.020;2023-04-08T03:41:50;101.07;;;28.27;;
8219;SDS011;4151;51.110;7.020;2023-04-08T03:44:16;103.80;;;26.90;;
8219;SDS011;4151;51.110;7.020;2023-04-08T03:46:41;121.37;;;34.13;;
8219;SDS011;4151;51.110;7.020;2023-04-08T03:49:07;156.70;;;48.43;;
8219;SDS011;4151;51.110;7.020;2023-04-08T03:51:33;117.60;;;31.77;;
8219;SDS011;4151;51.110;7.020;2023-04-08T03:53:58;124.07;;;28.63;;
8219;SDS011;4151;51.110;7.020;2023-04-08T03:56:24;92.67;;;25.60;;
8219;SDS011;4151;51.110;7.020;2023-04-08T03:58:50;119.47;;;26.93;;
8219;SDS011;4151;51.110;7.020;2023-04-08T04:01:16;90.40;;;24.97;;
8219;SDS011;4151;51.110;7.020;2023-04-08T04:03:41;105.73;;;29.73;;
8219;SDS011;4151;51.110;7.020;2023-04-08T04:06:07;112.30;;;28.73;;
8219;SDS011;4151;51.110;7.020;2023-04-08T04:08:32;113.90;;;28.47;;
8219;SDS011;4151;51.110;7.020;2023-04-08T04:10:58;114.83;;;28.27;;
8219;SDS011;4151;51.110;7.020;2023-04-08T04:13:24;104.80;;;26.00;;
8219;SDS011;4151;51.110;7.020;2023-04-08T04:15:49;107.87;;;28.03;;
8219;SDS011;4151;51.110;7.020;2023-04-08T04:18:15;121.13;;;29.23;;
8219;SDS011;4151;51.110;7.020;2023-04-08T04:20:41;122.60;;;26.90;;
8219;SDS011;4151;51.110;7.020;2023-04-08T04:23:07;104.20;;;27.03;;
8219;SDS011;4151;51.110;7.020;2023-04-08T04:25:33;110.23;;;27.40;;
8219;SDS011;4151;51.110;7.020;2023-04-08T04:27:58;104.70;;;26.00;;
8219;SDS011;4151;51.110;7.020;2023-04-08T04:30:25;113.03;;;26.67;;
8219;SDS011;4151;51.110;7.020;2023-04-08T04:32:51;96.70;;;28.20;;
8219;SDS011;4151;51.110;7.020;2023-04-08T04:35:16;113.13;;;31.23;;
8219;SDS011;4151;51.110;7.020;2023-04-08T04:37:42;106.43;;;28.77;;
8219;SDS011;4151;51.110;7.020;2023-04-08T04:40:07;134.10;;;30.37;;
8219;SDS011;4151;51.110;7.020;2023-04-08T04:42:33;111.57;;;27.20;;
8219;SDS011;4151;51.110;7.020;2023-04-08T04:44:58;110.90;;;26.93;;
8219;SDS011;4151;51.110;7.020;2023-04-08T04:47:24;103.40;;;27.27;;
8219;SDS011;4151;51.110;7.020;2023-04-08T04:49:50;91.80;;;26.67;;
8219;SDS011;4151;51.110;7.020;2023-04-08T04:52:16;100.13;;;25.03;;
8219;SDS011;4151;51.110;7.020;2023-04-08T04:54:41;100.53;;;26.50;;
8219;SDS011;4151;51.110;7.020;2023-04-08T04:57:07;105.57;;;27.73;;
8219;SDS011;4151;51.110;7.020;2023-04-08T04:59:34;95.47;;;26.40;;
8219;SDS011;4151;51.110;7.020;2023-04-08T05:02:00;80.50;;;25.33;;
8219;SDS011;4151;51.110;7.020;2023-04-08T05:04:26;103.70;;;26.20;;
8219;SDS011;4151;51.110;7.020;2023-04-08T05:06:52;106.80;;;26.47;;
8219;SDS011;4151;51.110;7.020;2023-04-08T05:09:17;99.53;;;26.67;;
8219;SDS011;4151;51.110;7.020;2023-04-08T05:11:43;93.87;;;24.87;;
8219;SDS011;4151;51.110;7.020;2023-04-08T05:14:08;91.33;;;26.70;;
8219;SDS011;4151;51.110;7.020;2023-04-08T05:16:34;100.03;;;26.63;;
8219;SDS011;4151;51.110;7.020;2023-04-08T05:19:00;95.23;;;24.80;;
8219;SDS011;4151;51.110;7.020;2023-04-08T05:21:26;88.73;;;24.03;;
8219;SDS011;4151;51.110;7.020;2023-04-08T05:23:52;93.07;;;25.77;;
8219;SDS011;4151;51.110;7.020;2023-04-08T05:26:21;79.23;;;24.73;;
8219;SDS011;4151;51.110;7.020;2023-04-08T05:28:47;85.93;;;24.00;;
8219;SDS011;4151;51.110;7.020;2023-04-08T05:31:19;80.87;;;24.10;;
8219;SDS011;4151;51.110;7.020;2023-04-08T05:33:45;80.70;;;23.03;;
8219;SDS011;4151;51.110;7.020;2023-04-08T05:36:11;87.63;;;24.10;;
8219;SDS011;4151;51.110;7.020;2023-04-08T05:38:37;85.27;;;24.87;;
8219;SDS011;4151;51.110;7.020;2023-04-08T05:41:03;84.57;;;23.80;;
8219;SDS011;4151;51.110;7.020;2023-04-08T05:43:31;76.03;;;22.50;;
8219;SDS011;4151;51.110;7.020;2023-04-08T05:45:57;90.33;;;24.77;;
8219;SDS011;4151;51.110;7.020;2023-04-08T05:48:23;93.63;;;24.77;;
8219;SDS011;4151;51.110;7.020;2023-04-08T05:50:49;86.60;;;27.30;;
8219;SDS011;4151;51.110;7.020;2023-04-08T05:53:15;82.40;;;25.00;;
8219;SDS011;4151;51.110;7.020;2023-04-08T05:55:40;83.70;;;24.97;;
8219;SDS011;4151;51.110;7.020;2023-04-08T05:58:06;101.47;;;25.37;;
8219;SDS011;4151;51.110;7.020;2023-04-08T06:00:31;92.87;;;26.67;;
8219;SDS011;4151;51.110;7.020;2023-04-08T06:02:57;82.27;;;24.40;;
8219;SDS011;4151;51.110;7.020;2023-04-08T06:05:23;105.07;;;27.97;;
8219;SDS011;4151;51.110;7.020;2023-04-08T06:07:49;95.53;;;26.87;;
8219;SDS011;4151;51.110;7.020;2023-04-08T06:10:15;103.80;;;27.47;;
8219;SDS011;4151;51.110;7.020;2023-04-08T06:12:40;95.23;;;26.50;;
8219;SDS011;4151;51.110;7.020;2023-04-08T06:15:06;99.87;;;28.00;;
8219;SDS011;4151;51.110;7.020;2023-04-08T06:17:34;98.40;;;26.17;;
8219;SDS011;4151;51.110;7.020;2023-04-08T06:20:01;95.23;;;26.37;;
8219;SDS011;4151;51.110;7.020;2023-04-08T06:22:27;92.97;;;24.73;;
8219;SDS011;4151;51.110;7.020;2023-04-08T06:24:53;86.80;;;23.20;;
8219;SDS011;4151;51.110;7.020;2023-04-08T06:27:19;100.40;;;25.93;;
8219;SDS011;4151;51.110;7.020;2023-04-08T06:29:45;93.53;;;25.43;;
8219;SDS011;4151;51.110;7.020;2023-04-08T06:32:11;86.70;;;26.77;;
8219;SDS011;4151;51.110;7.020;2023-04-08T06:34:37;81.07;;;24.60;;
8219;SDS011;4151;51.110;7.020;2023-04-08T06:37:03;86.93;;;26.40;;
8219;SDS011;4151;51.110;7.020;2023-04-08T06:39:30;81.67;;;26.47;;
8219;SDS011;4151;51.110;7.020;2023-04-08T06:41:55;72.40;;;23.57;;
8219;SDS011;4151;51.110;7.020;2023-04-08T06:44:22;77.70;;;23.33;;
8219;SDS011;4151;51.110;7.020;2023-04-08T06:46:48;81.80;;;23.80;;
8219;SDS011;4151;51.110;7.020;2023-04-08T06:49:13;78.17;;;25.57;;
8219;SDS011;4151;51.110;7.020;2023-04-08T06:51:39;79.20;;;24.40;;
8219;SDS011;4151;51.110;7.020;2023-04-08T06:54:05;74.70;;;24.97;;
8219;SDS011;4151;51.110;7.020;2023-04-08T06:56:31;68.43;;;23.73;;
8219;SDS011;4151;51.110;7.020;2023-04-08T06:58:56;58.47;;;24.10;;
8219;SDS011;4151;51.110;7.020;2023-04-08T07:01:22;65.60;;;21.97;;
8219;SDS011;4151;51.110;7.020;2023-04-08T07:03:48;59.57;;;21.93;;
8219;SDS011;4151;51.110;7.020;2023-04-08T07:06:14;59.33;;;22.30;;
8219;SDS011;4151;51.110;7.020;2023-04-08T07:08:40;56.53;;;20.57;;
8219;SDS011;4151;51.110;7.020;2023-04-08T07:11:06;59.13;;;21.30;;
8219;SDS011;4151;51.110;7.020;2023-04-08T07:13:32;64.50;;;22.90;;
8219;SDS011;4151;51.110;7.020;2023-04-08T07:15:57;55.00;;;22.40;;
8219;SDS011;4151;51.110;7.020;2023-04-08T07:18:23;55.63;;;20.20;;
8219;SDS011;4151;51.110;7.020;2023-04-08T07:20:50;57.37;;;23.23;;
8219;SDS011;4151;51.110;7.020;2023-04-08T07:23:19;52.93;;;23.07;;
8219;SDS011;4151;51.110;7.020;2023-04-08T07:25:45;58.73;;;23.40;;
8219;SDS011;4151;51.110;7.020;2023-04-08T07:28:11;58.00;;;22.73;;
8219;SDS011;4151;51.110;7.020;2023-04-08T07:30:37;69.60;;;25.27;;
8219;SDS011;4151;51.110;7.020;2023-04-08T07:33:03;55.57;;;22.33;;
8219;SDS011;4151;51.110;7.020;2023-04-08T07:35:29;54.27;;;21.17;;
8219;SDS011;4151;51.110;7.020;2023-04-08T07:37:55;59.07;;;21.90;;
8219;SDS011;4151;51.110;7.020;2023-04-08T07:40:21;57.23;;;23.80;;
8219;SDS011;4151;51.110;7.020;2023-04-08T07:42:47;55.23;;;23.13;;
8219;SDS011;4151;51.110;7.020;2023-04-08T07:45:13;57.40;;;24.40;;
8219;SDS011;4151;51.110;7.020;2023-04-08T07:47:39;67.10;;;27.37;;
8219;SDS011;4151;51.110;7.020;2023-04-08T07:50:05;64.20;;;23.17;;
8219;SDS011;4151;51.110;7.020;2023-04-08T07:52:31;51.00;;;22.57;;
8219;SDS011;4151;51.110;7.020;2023-04-08T07:54:57;59.77;;;24.27;;
8219;SDS011;4151;51.110;7.020;2023-04-08T07:57:23;64.30;;;25.43;;
8219;SDS011;4151;51.110;7.020;2023-04-08T07:59:50;71.33;;;25.87;;
8219;SDS011;4151;51.110;7.020;2023-04-08T08:02:15;65.10;;;25.73;;
8219;SDS011;4151;51.110;7.020;2023-04-08T08:04:41;72.93;;;27.53;;
8219;SDS011;4151;51.110;7.020;2023-04-08T08:07:06;74.27;;;28.43;;
8219;SDS011;4151;51.110;7.020;2023-04-08T08:09:32;65.77;;;27.73;;
8219;SDS011;4151;51.110;7.020;2023-04-08T08:11:57;71.90;;;25.80;;
8219;SDS011;4151;51.110;7.020;2023-04-08T08:14:23;61.43;;;24.27;;
8219;SDS011;4151;51.110;7.020;2023-04-08T08:16:50;62.43;;;21.20;;
8219;SDS011;4151;51.110;7.020;2023-04-08T08:19:16;53.03;;;21.87;;
8219;SDS011;4151;51.110;7.020;2023-04-08T08:21:42;53.93;;;23.63;;
8219;SDS011;4151;51.110;7.020;2023-04-08T08:24:07;54.97;;;23.50;;
8219;SDS011;4151;51.110;7.020;2023-04-08T08:26:33;53.57;;;22.77;;
8219;SDS011;4151;51.110;7.020;2023-04-08T08:29:00;53.47;;;22.40;;
8219;SDS011;4151;51.110;7.020;2023-04-08T08:31:26;51.47;;;23.10;;
8219;SDS011;4151;51.110;7.020;2023-04-08T08:33:52;54.17;;;23.43;;
8219;SDS011;4151;51.110;7.020;2023-04-08T08:36:17;57.80;;;24.80;;
8219;SDS011;4151;51.110;7.020;2023-04-08T08:38:43;57.83;;;24.40;;
8219;SDS011;4151;51.110;7.020;2023-04-08T08:41:08;58.30;;;24.33;;
8219;SDS011;4151;51.110;7.020;2023-04-08T08:43:34;59.37;;;26.40;;
8219;SDS011;4151;51.110;7.020;2023-04-08T08:46:00;59.50;;;25.80;;
8219;SDS011;4151;51.110;7.020;2023-04-08T08:48:25;54.80;;;25.67;;
8219;SDS011;4151;51.110;7.020;2023-04-08T08:50:51;56.23;;;26.27;;
8219;SDS011;4151;51.110;7.020;2023-04-08T08:53:17;57.07;;;26.37;;
8219;SDS011;4151;51.110;7.020;2023-04-08T08:55:43;63.03;;;26.13;;
8219;SDS011;4151;51.110;7.020;2023-04-08T08:58:09;59.63;;;25.87;;
8219;SDS011;4151;51.110;7.020;2023-04-08T09:00:38;60.27;;;26.57;;
8219;SDS011;4151;51.110;7.020;2023-04-08T09:05:57;55.47;;;25.43;;
8219;SDS011;4151;51.110;7.020;2023-04-08T09:08:34;59.90;;;27.27;;
8219;SDS011;4151;51.110;7.020;2023-04-08T09:13:35;59.47;;;27.90;;
8219;SDS011;4151;51.110;7.020;2023-04-08T09:18:27;59.60;;;26.67;;
8219;SDS011;4151;51.110;7.020;2023-04-08T09:20:53;55.97;;;25.50;;
8219;SDS011;4151;51.110;7.020;2023-04-08T09:23:19;56.87;;;26.13;;
8219;SDS011;4151;51.110;7.020;2023-04-08T09:25:44;54.60;;;26.90;;
8219;SDS011;4151;51.110;7.020;2023-04-08T09:28:19;64.00;;;28.10;;
8219;SDS011;4151;51.110;7.020;2023-04-08T09:30:45;59.30;;;28.00;;
8219;SDS011;4151;51.110;7.020;2023-04-08T09:33:11;62.83;;;28.63;;
8219;SDS011;4151;51.110;7.020;2023-04-08T09:35:37;60.93;;;27.53;;
8219;SDS011;4151;51.110;7.020;2023-04-08T09:38:03;54.47;;;26.47;;
8219;SDS011;4151;51.110;7.020;2023-04-08T09:40:31;59.07;;;26.10;;
8219;SDS011;4151;51.110;7.020;2023-04-08T09:43:04;61.67;;;27.20;;
8219;SDS011;4151;51.110;7.020;2023-04-08T09:45:32;57.23;;;27.17;;
8219;SDS011;4151;51.110;7.020;2023-04-08T09:48:11;52.70;;;26.47;;
8219;SDS011;4151;51.110;7.020;2023-04-08T09:50:46;52.87;;;26.17;;
8219;SDS011;4151;51.110;7.020;2023-04-08T09:53:31;43.60;;;22.80;;
8219;SDS011;4151;51.110;7.020;2023-04-08T09:56:00;41.67;;;22.20;;
8219;SDS011;4151;51.110;7.020;2023-04-08T09:58:32;46.40;;;23.37;;
8219;SDS011;4151;51.110;7.020;2023-04-08T10:01:03;44.80;;;22.20;;
8219;SDS011;4151;51.110;7.020;2023-04-08T10:03:36;34.60;;;20.87;;
8219;SDS011;4151;51.110;7.020;2023-04-08T10:06:06;55.97;;;19.93;;
8219;SDS011;4151;51.110;7.020;2023-04-08T10:08:34;39.00;;;20.23;;
8219;SDS011;4151;51.110;7.020;2023-04-08T10:11:00;35.60;;;19.63;;
8219;SDS011;4151;51.110;7.020;2023-04-08T10:13:26;38.70;;;20.30;;
8219;SDS011;4151;51.110;7.020;2023-04-08T10:16:16;39.13;;;20.37;;
8219;SDS011;4151;51.110;7.020;2023-04-08T10:18:48;36.10;;;19.67;;
8219;SDS011;4151;51.110;7.020;2023-04-08T10:21:32;37.33;;;19.50;;
8219;SDS011;4151;51.110;7.020;2023-04-08T10:23:59;33.60;;;18.63;;
8219;SDS011;4151;51.110;7.020;2023-04-08T10:26:33;35.70;;;20.10;;
8219;SDS011;4151;51.110;7.020;2023-04-08T10:31:47;33.07;;;19.27;;
8219;SDS011;4151;51.110;7.020;2023-04-08T10:34:16;28.23;;;17.80;;
8219;SDS011;4151;51.110;7.020;2023-04-08T10:36:42;34.80;;;18.77;;
8219;SDS011;4151;51.110;7.020;2023-04-08T10:39:09;39.60;;;21.40;;
8219;SDS011;4151;51.110;7.020;2023-04-08T10:41:37;35.40;;;20.47;;
8219;SDS011;4151;51.110;7.020;2023-04-08T10:52:46;39.57;;;21.00;;
8219;SDS011;4151;51.110;7.020;2023-04-08T10:55:12;37.70;;;19.70;;
8219;SDS011;4151;51.110;7.020;2023-04-08T10:57:37;44.43;;;20.67;;
8219;SDS011;4151;51.110;7.020;2023-04-08T11:00:08;38.73;;;20.20;;
8219;SDS011;4151;51.110;7.020;2023-04-08T11:02:36;39.17;;;20.00;;
8219;SDS011;4151;51.110;7.020;2023-04-08T11:05:02;43.70;;;22.90;;
8219;SDS011;4151;51.110;7.020;2023-04-08T11:07:28;42.80;;;19.40;;
8219;SDS011;4151;51.110;7.020;2023-04-08T11:09:54;35.87;;;17.73;;
8219;SDS011;4151;51.110;7.020;2023-04-08T11:12:21;36.30;;;18.50;;
8219;SDS011;4151;51.110;7.020;2023-04-08T11:14:47;40.07;;;17.60;;
8219;SDS011;4151;51.110;7.020;2023-04-08T11:17:14;34.33;;;18.53;;
8219;SDS011;4151;51.110;7.020;2023-04-08T11:25:33;38.73;;;20.07;;
8219;SDS011;4151;51.110;7.020;2023-04-08T11:27:59;34.87;;;19.63;;
8219;SDS011;4151;51.110;7.020;2023-04-08T11:30:26;36.97;;;19.57;;
8219;SDS011;4151;51.110;7.020;2023-04-08T11:32:52;38.37;;;20.00;;
8219;SDS011;4151;51.110;7.020;2023-04-08T11:35:19;32.97;;;18.27;;
8219;SDS011;4151;51.110;7.020;2023-04-08T11:37:45;28.67;;;16.10;;
8219;SDS011;4151;51.110;7.020;2023-04-08T11:40:11;26.83;;;14.20;;
8219;SDS011;4151;51.110;7.020;2023-04-08T11:42:38;24.77;;;13.67;;
8219;SDS011;4151;51.110;7.020;2023-04-08T11:45:13;23.07;;;12.67;;
8219;SDS011;4151;51.110;7.020;2023-04-08T11:47:40;21.73;;;10.37;;
8219;SDS011;4151;51.110;7.020;2023-04-08T11:50:07;16.93;;;9.17;;
8219;SDS011;4151;51.110;7.020;2023-04-08T11:52:46;21.07;;;9.47;;
8219;SDS011;4151;51.110;7.020;2023-04-08T11:55:26;19.40;;;9.13;;
8219;SDS011;4151;51.110;7.020;2023-04-08T11:57:53;14.97;;;8.87;;
8219;SDS011;4151;51.110;7.020;2023-04-08T12:00:20;14.77;;;8.07;;
8219;SDS011;4151;51.110;7.020;2023-04-08T12:02:46;13.33;;;7.70;;
8219;SDS011;4151;51.110;7.020;2023-04-08T12:05:13;11.97;;;7.07;;
8219;SDS011;4151;51.110;7.020;2023-04-08T12:07:39;13.20;;;8.20;;
8219;SDS011;4151;51.110;7.020;2023-04-08T12:10:06;14.30;;;8.73;;
8219;SDS011;4151;51.110;7.020;2023-04-08T12:12:32;15.37;;;7.60;;
8219;SDS011;4151;51.110;7.020;2023-04-08T12:14:57;13.30;;;7.97;;
8219;SDS011;4151;51.110;7.020;2023-04-08T12:17:23;15.77;;;8.50;;
8219;SDS011;4151;51.110;7.020;2023-04-08T12:19:49;19.90;;;10.17;;
8219;SDS011;4151;51.110;7.020;2023-04-08T12:22:14;20.17;;;9.43;;
8219;SDS011;4151;51.110;7.020;2023-04-08T12:24:40;24.93;;;8.93;;
8219;SDS011;4151;51.110;7.020;2023-04-08T12:27:06;15.70;;;8.57;;
8219;SDS011;4151;51.110;7.020;2023-04-08T12:29:31;15.00;;;8.43;;
8219;SDS011;4151;51.110;7.020;2023-04-08T12:31:57;14.07;;;8.47;;
8219;SDS011;4151;51.110;7.020;2023-04-08T12:34:23;17.83;;;8.70;;
8219;SDS011;4151;51.110;7.020;2023-04-08T12:36:48;14.87;;;8.10;;
8219;SDS011;4151;51.110;7.020;2023-04-08T12:39:14;10.60;;;7.17;;
8219;SDS011;4151;51.110;7.020;2023-04-08T12:41:40;14.70;;;7.80;;
8219;SDS011;4151;51.110;7.020;2023-04-08T12:44:05;12.40;;;7.43;;
8219;SDS011;4151;51.110;7.020;2023-04-08T12:46:31;16.40;;;8.30;;
8219;SDS011;4151;51.110;7.020;2023-04-08T12:48:57;13.90;;;8.30;;
8219;SDS011;4151;51.110;7.020;2023-04-08T12:51:22;13.87;;;8.30;;
8219;SDS011;4151;51.110;7.020;2023-04-08T12:53:50;15.97;;;8.97;;
8219;SDS011;4151;51.110;7.020;2023-04-08T12:56:15;15.70;;;8.67;;
8219;SDS011;4151;51.110;7.020;2023-04-08T12:58:41;17.37;;;8.27;;
8219;SDS011;4151;51.110;7.020;2023-04-08T13:01:07;18.50;;;7.97;;
8219;SDS011;4151;51.110;7.020;2023-04-08T13:03:32;11.67;;;7.60;;
8219;SDS011;4151;51.110;7.020;2023-04-08T13:05:59;14.43;;;8.10;;
8219;SDS011;4151;51.110;7.020;2023-04-08T13:08:25;11.90;;;7.03;;
8219;SDS011;4151;51.110;7.020;2023-04-08T13:10:51;11.07;;;6.87;;
8219;SDS011;4151;51.110;7.020;2023-04-08T13:13:16;10.23;;;6.20;;
8219;SDS011;4151;51.110;7.020;2023-04-08T13:15:42;9.27;;;5.67;;
8219;SDS011;4151;51.110;7.020;2023-04-08T13:18:08;10.60;;;6.10;;
8219;SDS011;4151;51.110;7.020;2023-04-08T13:20:33;9.93;;;5.97;;
8219;SDS011;4151;51.110;7.020;2023-04-08T13:22:59;11.40;;;5.97;;
8219;SDS011;4151;51.110;7.020;2023-04-08T13:25:25;8.97;;;5.80;;
8219;SDS011;4151;51.110;7.020;2023-04-08T13:27:51;12.03;;;5.60;;
8219;SDS011;4151;51.110;7.020;2023-04-08T13:30:16;9.80;;;5.63;;
8219;SDS011;4151;51.110;7.020;2023-04-08T13:32:42;11.10;;;6.47;;
8219;SDS011;4151;51.110;7.020;2023-04-08T13:35:08;13.90;;;5.70;;
8219;SDS011;4151;51.110;7.020;2023-04-08T13:37:34;9.63;;;6.00;;
8219;SDS011;4151;51.110;7.020;2023-04-08T13:40:00;10.10;;;6.30;;
8219;SDS011;4151;51.110;7.020;2023-04-08T13:42:26;13.00;;;6.03;;
8219;SDS011;4151;51.110;7.020;2023-04-08T13:44:51;11.50;;;6.30;;
8219;SDS011;4151;51.110;7.020;2023-04-08T13:47:17;13.73;;;5.70;;
8219;SDS011;4151;51.110;7.020;2023-04-08T13:49:42;14.73;;;7.07;;
8219;SDS011;4151;51.110;7.020;2023-04-08T13:52:08;10.47;;;6.40;;
8219;SDS011;4151;51.110;7.020;2023-04-08T13:54:34;11.10;;;7.03;;
8219;SDS011;4151;51.110;7.020;2023-04-08T13:57:00;10.03;;;7.37;;
8219;SDS011;4151;51.110;7.020;2023-04-08T13:59:25;9.80;;;7.20;;
8219;SDS011;4151;51.110;7.020;2023-04-08T14:01:51;15.00;;;7.60;;
8219;SDS011;4151;51.110;7.020;2023-04-08T14:04:21;13.73;;;7.87;;
8219;SDS011;4151;51.110;7.020;2023-04-08T14:06:47;10.13;;;6.93;;
8219;SDS011;4151;51.110;7.020;2023-04-08T14:09:15;13.23;;;7.40;;
8219;SDS011;4151;51.110;7.020;2023-04-08T14:11:41;12.03;;;8.03;;
8219;SDS011;4151;51.110;7.020;2023-04-08T14:14:07;18.03;;;7.77;;
8219;SDS011;4151;51.110;7.020;2023-04-08T14:16:32;11.10;;;7.40;;
8219;SDS011;4151;51.110;7.020;2023-04-08T14:18:59;13.13;;;8.60;;
8219;SDS011;4151;51.110;7.020;2023-04-08T14:21:25;13.67;;;8.90;;
8219;SDS011;4151;51.110;7.020;2023-04-08T14:23:51;9.80;;;7.13;;
8219;SDS011;4151;51.110;7.020;2023-04-08T14:26:17;12.53;;;7.90;;
8219;SDS011;4151;51.110;7.020;2023-04-08T14:28:42;12.07;;;7.50;;
8219;SDS011;4151;51.110;7.020;2023-04-08T14:31:08;15.40;;;7.70;;
8219;SDS011;4151;51.110;7.020;2023-04-08T14:33:33;16.70;;;8.27;;
8219;SDS011;4151;51.110;7.020;2023-04-08T14:35:59;13.07;;;8.30;;
8219;SDS011;4151;51.110;7.020;2023-04-08T14:38:24;12.83;;;8.23;;
8219;SDS011;4151;51.110;7.020;2023-04-08T14:40:50;11.73;;;8.40;;
8219;SDS011;4151;51.110;7.020;2023-04-08T14:43:16;11.63;;;7.70;;
8219;SDS011;4151;51.110;7.020;2023-04-08T14:45:42;12.67;;;9.40;;
8219;SDS011;4151;51.110;7.020;2023-04-08T14:48:08;14.47;;;9.23;;
8219;SDS011;4151;51.110;7.020;2023-04-08T14:50:34;13.43;;;9.10;;
8219;SDS011;4151;51.110;7.020;2023-04-08T14:53:00;14.47;;;9.03;;
8219;SDS011;4151;51.110;7.020;2023-04-08T14:55:26;14.47;;;10.20;;
8219;SDS011;4151;51.110;7.020;2023-04-08T14:57:53;15.83;;;9.90;;
8219;SDS011;4151;51.110;7.020;2023-04-08T15:00:19;14.47;;;10.13;;
8219;SDS011;4151;51.110;7.020;2023-04-08T15:02:45;15.83;;;11.27;;
8219;SDS011;4151;51.110;7.020;2023-04-08T15:05:10;20.87;;;10.73;;
8219;SDS011;4151;51.110;7.020;2023-04-08T15:07:36;15.90;;;11.07;;
8219;SDS011;4151;51.110;7.020;2023-04-08T15:10:01;16.90;;;11.00;;
8219;SDS011;4151;51.110;7.020;2023-04-08T15:12:27;14.80;;;10.17;;
8219;SDS011;4151;51.110;7.020;2023-04-08T15:14:53;16.27;;;11.10;;